createdAt,value
2019-04-25T00:02:24.126Z,-72
2019-04-25T00:04:53.670Z,-72
2019-04-25T00:07:23.366Z,-72
2019-04-25T00:09:53.932Z,-72
2019-04-25T00:12:24.138Z,-72
2019-04-25T00:14:53.745Z,-72
2019-04-25T00:17:24.563Z,-72
2019-04-25T00:19:54.132Z,-72
2019-04-25T00:22:28.523Z,-72
2019-04-25T00:25:18.082Z,-72
2019-04-25T00:27:48.525Z,-72
2019-04-25T00:30:19.207Z,-72
2019-04-25T00:32:49.298Z,-72
2019-04-25T00:35:18.910Z,-72
2019-04-25T00:37:48.394Z,-72
2019-04-25T00:40:17.946Z,-72
2019-04-25T00:42:48.205Z,-72
2019-04-25T00:45:17.872Z,-72
2019-04-25T00:47:47.747Z,-72
2019-04-25T00:50:17.388Z,-71
2019-04-25T00:52:46.870Z,-72
2019-04-25T00:55:26.097Z,-72
2019-04-25T00:57:49.303Z,-72
2019-04-25T01:00:21.694Z,-72
2019-04-25T01:02:54.561Z,-72
2019-04-25T01:05:24.159Z,-72
2019-04-25T01:07:54.411Z,-72
2019-04-25T01:10:24.040Z,-71
2019-04-25T01:12:53.769Z,-71
2019-04-25T01:15:24.111Z,-73
2019-04-25T01:17:53.659Z,-72
2019-04-25T01:20:23.961Z,-71
2019-04-25T01:22:54.279Z,-71
2019-04-25T01:25:24.923Z,-72
2019-04-25T01:27:54.798Z,-71
2019-04-25T01:30:26.225Z,-72
2019-04-25T01:32:55.705Z,-73
2019-04-25T01:35:27.005Z,-72
2019-04-25T01:38:06.762Z,-72
2019-04-25T01:40:54.447Z,-73
2019-04-25T01:43:43.684Z,-72
2019-04-25T01:46:14.871Z,-73
2019-04-25T01:48:44.497Z,-71
2019-04-25T01:51:14.365Z,-72
2019-04-25T01:53:44.217Z,-72
2019-04-25T01:56:14.186Z,-72
2019-04-25T01:58:43.918Z,-71
2019-04-25T02:01:15.133Z,-72
2019-04-25T02:03:44.691Z,-71
2019-04-25T02:06:14.187Z,-71
2019-04-25T02:08:44.112Z,-72
2019-04-25T02:11:15.421Z,-72
2019-04-25T02:13:45.051Z,-72
2019-04-25T02:16:14.836Z,-72
2019-04-25T02:18:44.368Z,-72
2019-04-25T02:21:14.039Z,-72
2019-04-25T02:23:44.183Z,-72
2019-04-25T02:26:16.793Z,-72
2019-04-25T02:28:45.120Z,-71
2019-04-25T02:31:17.853Z,-71
2019-04-25T02:33:45.794Z,-71
2019-04-25T02:36:15.362Z,-73
2019-04-25T02:38:44.825Z,-72
2019-04-25T02:41:14.927Z,-72
2019-04-25T02:43:45.204Z,-72
2019-04-25T02:46:19.052Z,-73
2019-04-25T02:48:48.374Z,-72
2019-04-25T02:51:34.823Z,-72
2019-04-25T02:54:06.750Z,-72
2019-04-25T02:56:38.721Z,-72
2019-04-25T02:59:08.768Z,-72
2019-04-25T03:01:37.748Z,-73
2019-04-25T03:04:10.718Z,-72
2019-04-25T03:06:38.475Z,-72
2019-04-25T03:09:10.734Z,-72
2019-04-25T03:11:40.581Z,-72
2019-04-25T03:14:10.445Z,-72
2019-04-25T03:16:40.075Z,-72
2019-04-25T03:19:18.103Z,-71
2019-04-25T03:21:49.318Z,-72
2019-04-25T03:24:18.916Z,-72
2019-04-25T03:26:48.532Z,-72
2019-04-25T03:29:18.002Z,-72
2019-04-25T03:31:47.572Z,-73
2019-04-25T03:34:20.546Z,-71
2019-04-25T03:36:48.298Z,-72
2019-04-25T03:39:17.795Z,-72
2019-04-25T03:41:47.256Z,-72
2019-04-25T03:44:16.835Z,-72
2019-04-25T03:46:46.273Z,-72
2019-04-25T03:49:15.835Z,-71
2019-04-25T03:51:45.301Z,-71
2019-04-25T03:54:14.855Z,-72
2019-04-25T03:56:53.282Z,-72
2019-04-25T03:59:16.116Z,-71
2019-04-25T04:01:45.713Z,-72
2019-04-25T04:04:16.248Z,-72
2019-04-25T04:06:45.951Z,-71
2019-04-25T04:09:15.456Z,-71
2019-04-25T04:11:44.920Z,-73
2019-04-25T04:14:15.622Z,-72
2019-04-25T04:17:05.067Z,-71
2019-04-25T04:19:35.937Z,-71
2019-04-25T04:22:09.829Z,-72
2019-04-25T04:24:40.951Z,-71
2019-04-25T04:27:12.236Z,-71
2019-04-25T04:29:43.208Z,-72
2019-04-25T04:32:14.397Z,-70
2019-04-25T04:34:45.529Z,-71
2019-04-25T04:37:16.175Z,-72
2019-04-25T04:39:45.777Z,-71
2019-04-25T04:42:16.108Z,-71
2019-04-25T04:44:45.697Z,-73
2019-04-25T04:47:15.512Z,-73
2019-04-25T04:49:45.276Z,-72
2019-04-25T04:52:15.792Z,-74
2019-04-25T04:54:45.438Z,-73
2019-04-25T04:57:26.644Z,-73
2019-04-25T04:59:46.121Z,-73
2019-04-25T05:02:20.702Z,-73
2019-04-25T05:04:49.943Z,-72
2019-04-25T05:07:39.347Z,-73
2019-04-25T05:10:08.943Z,-73
2019-04-25T05:12:38.435Z,-73
2019-04-25T05:15:09.134Z,-73
2019-04-25T05:17:38.594Z,-73
2019-04-25T05:20:08.399Z,-73
2019-04-25T05:22:37.933Z,-73
2019-04-25T05:25:08.263Z,-73
2019-04-25T05:27:56.731Z,-73
2019-04-25T05:30:11.558Z,-73
2019-04-25T05:32:41.089Z,-71
2019-04-25T05:35:10.844Z,-73
2019-04-25T05:37:40.384Z,-72
2019-04-25T05:40:10.258Z,-73
2019-04-25T05:42:59.969Z,-72
2019-04-25T05:45:34.080Z,-73
2019-04-25T05:48:05.676Z,-72
2019-04-25T05:50:35.014Z,-71
2019-04-25T05:53:04.556Z,-73
2019-04-25T05:55:34.431Z,-73
2019-04-25T05:58:04.073Z,-72
2019-04-25T06:00:34.065Z,-72
2019-04-25T06:03:03.862Z,-72
2019-04-25T06:05:33.793Z,-72
2019-04-25T06:08:04.359Z,-72
2019-04-25T06:10:47.283Z,-73
2019-04-25T06:13:30.600Z,-72
2019-04-25T06:16:03.452Z,-72
2019-04-25T06:18:41.904Z,-71
2019-04-25T06:21:13.332Z,-72
2019-04-25T06:23:49.951Z,-72
2019-04-25T06:26:32.721Z,-71
2019-04-25T06:28:57.089Z,-73
2019-04-25T06:31:23.820Z,-73
2019-04-25T06:33:53.951Z,-72
2019-04-25T06:36:24.549Z,-72
2019-04-25T06:38:54.841Z,-73
2019-04-25T06:41:25.879Z,-72
2019-04-25T06:43:57.150Z,-72
2019-04-25T06:46:44.309Z,-72
2019-04-25T06:49:15.428Z,-72
2019-04-25T06:51:51.862Z,-73
2019-04-25T06:54:22.003Z,-73
2019-04-25T06:56:53.533Z,-73
2019-04-25T06:59:25.962Z,-73
2019-04-25T07:01:56.214Z,-72
2019-04-25T07:04:26.989Z,-73
2019-04-25T07:07:09.390Z,-73
2019-04-25T07:09:29.679Z,-72
2019-04-25T07:11:59.436Z,-73
2019-04-25T07:14:29.519Z,-72
2019-04-25T07:16:59.083Z,-72
2019-04-25T07:19:28.711Z,-73
2019-04-25T07:21:58.314Z,-73
2019-04-25T07:24:28.790Z,-72
2019-04-25T07:27:11.833Z,-73
2019-04-25T07:29:43.666Z,-73
2019-04-25T07:32:20.219Z,-73
2019-04-25T07:34:49.788Z,-73
2019-04-25T07:37:19.398Z,-73
2019-04-25T07:39:49.092Z,-73
2019-04-25T07:42:18.742Z,-73
2019-04-25T07:44:52.526Z,-73
2019-04-25T07:47:19.560Z,-73
2019-04-25T07:49:49.027Z,-73
2019-04-25T07:52:18.593Z,-73
2019-04-25T07:54:48.076Z,-72
2019-04-25T07:57:17.532Z,-73
2019-04-25T07:59:47.110Z,-73
2019-04-25T08:02:16.890Z,-73
2019-04-25T08:04:46.364Z,-73
2019-04-25T08:07:15.913Z,-73
2019-04-25T08:09:45.460Z,-73
2019-04-25T08:12:15.016Z,-73
2019-04-25T08:14:46.264Z,-73
2019-04-25T08:17:17.452Z,-73
2019-04-25T08:19:47.586Z,-73
2019-04-25T08:22:17.204Z,-73
2019-04-25T08:24:47.068Z,-73
2019-04-25T08:27:16.561Z,-73
2019-04-25T08:29:46.575Z,-73
2019-04-25T08:32:16.162Z,-73
2019-04-25T08:34:45.637Z,-73
2019-04-25T08:37:20.339Z,-73
2019-04-25T08:39:46.352Z,-73
2019-04-25T08:42:15.904Z,-73
2019-04-25T08:44:45.372Z,-74
2019-04-25T08:47:14.857Z,-73
2019-04-25T08:49:46.205Z,-73
2019-04-25T08:52:15.778Z,-73
2019-04-25T08:54:47.720Z,-72
2019-04-25T08:57:18.905Z,-73
2019-04-25T09:00:06.157Z,-72
2019-04-25T09:02:44.670Z,-72
2019-04-25T09:05:18.836Z,-73
2019-04-25T09:07:48.400Z,-73
2019-04-25T09:10:18.008Z,-73
2019-04-25T09:12:47.524Z,-73
2019-04-25T09:15:17.397Z,-72
2019-04-25T09:17:47.253Z,-73
2019-04-25T09:20:17.164Z,-73
2019-04-25T09:22:46.669Z,-73
2019-04-25T09:25:16.298Z,-73
2019-04-25T09:27:47.429Z,-73
2019-04-25T09:30:18.700Z,-73
2019-04-25T09:32:48.266Z,-72
2019-04-25T09:35:20.127Z,-73
2019-04-25T09:37:49.296Z,-71
2019-04-25T09:40:19.086Z,-73
2019-04-25T09:42:50.197Z,-72
2019-04-25T09:45:19.906Z,-73
2019-04-25T09:47:51.004Z,-72
2019-04-25T09:50:37.503Z,-73
2019-04-25T09:53:15.488Z,-73
2019-04-25T09:55:59.107Z,-73
2019-04-25T09:58:30.257Z,-73
2019-04-25T10:01:01.519Z,-72
2019-04-25T10:03:31.001Z,-72
2019-04-25T10:06:00.560Z,-72
2019-04-25T10:08:30.069Z,-73
2019-04-25T10:10:59.615Z,-73
2019-04-25T10:13:29.111Z,-73
2019-04-25T10:16:12.414Z,-72
2019-04-25T10:18:43.682Z,-73
2019-04-25T10:21:14.518Z,-73
2019-04-25T10:23:46.410Z,-73
2019-04-25T10:26:15.591Z,-72
2019-04-25T10:28:45.326Z,-73
2019-04-25T10:31:14.938Z,-72
2019-04-25T10:33:46.685Z,-72
2019-04-25T10:36:16.241Z,-73
2019-04-25T10:39:01.502Z,-73
2019-04-25T10:41:17.174Z,-73
2019-04-25T10:43:46.875Z,-74
2019-04-25T10:46:16.911Z,-74
2019-04-25T10:48:46.492Z,-74
2019-04-25T10:51:15.950Z,-74
2019-04-25T10:53:46.925Z,-75
2019-04-25T10:56:16.536Z,-75
2019-04-25T10:58:46.719Z,-76
2019-04-25T11:01:16.450Z,-76
2019-04-25T11:04:04.679Z,-76
2019-04-25T11:06:34.460Z,-76
2019-04-25T11:09:05.702Z,-75
2019-04-25T11:11:36.729Z,-75
2019-04-25T11:14:07.605Z,-75
2019-04-25T11:16:37.380Z,-75
2019-04-25T11:19:07.092Z,-75
2019-04-25T11:21:36.723Z,-75
2019-04-25T11:24:06.504Z,-74
2019-04-25T11:26:36.176Z,-75
2019-04-25T11:29:05.927Z,-75
2019-04-25T11:31:37.110Z,-74
2019-04-25T11:34:07.478Z,-75
2019-04-25T11:36:37.092Z,-75
2019-04-25T11:39:13.614Z,-74
2019-04-25T11:41:45.627Z,-75
2019-04-25T11:44:14.473Z,-74
2019-04-25T11:46:45.327Z,-75
2019-04-25T11:49:15.462Z,-74
2019-04-25T11:51:46.108Z,-75
2019-04-25T11:54:15.910Z,-75
2019-04-25T11:56:46.989Z,-77
2019-04-25T11:59:16.794Z,-75
2019-04-25T12:01:47.646Z,-75
2019-04-25T12:04:17.220Z,-75
2019-04-25T12:06:47.550Z,-75
2019-04-25T12:09:17.611Z,-75
2019-04-25T12:11:48.483Z,-74
2019-04-25T12:14:18.267Z,-75
2019-04-25T12:16:50.323Z,-75
2019-04-25T12:19:19.014Z,-75
2019-04-25T12:21:48.527Z,-76
2019-04-25T12:24:18.129Z,-75
2019-04-25T12:26:48.673Z,-75
2019-04-25T12:29:18.173Z,-76
2019-04-25T12:31:47.729Z,-77
2019-04-25T12:34:17.450Z,-76
2019-04-25T12:36:47.574Z,-77
2019-04-25T12:39:18.008Z,-77
2019-04-25T12:41:49.009Z,-77
2019-04-25T12:44:21.349Z,-77
2019-04-25T12:46:54.219Z,-77
2019-04-25T12:49:24.184Z,-76
2019-04-25T12:51:53.748Z,-77
2019-04-25T12:54:23.872Z,-77
2019-04-25T12:56:53.741Z,-76
2019-04-25T12:59:23.237Z,-77
2019-04-25T13:01:54.508Z,-77
2019-04-25T13:04:24.015Z,-77
2019-04-25T13:06:54.453Z,-76
2019-04-25T13:09:23.995Z,-77
2019-04-25T13:11:53.530Z,-77
2019-04-25T13:14:23.121Z,-77
2019-04-25T13:16:52.732Z,-76
2019-04-25T13:19:25.946Z,-77
2019-04-25T13:21:54.359Z,-76
2019-04-25T13:24:24.019Z,-77
2019-04-25T13:27:10.101Z,-76
2019-04-25T13:29:39.393Z,-77
2019-04-25T13:32:17.295Z,-77
2019-04-25T13:34:50.920Z,-77
2019-04-25T13:37:20.494Z,-77
2019-04-25T13:39:50.114Z,-76
2019-04-25T13:42:19.851Z,-77
2019-04-25T13:44:49.485Z,-77
2019-04-25T13:47:19.085Z,-77
2019-04-25T13:49:48.592Z,-77
2019-04-25T13:52:18.108Z,-76
2019-04-25T13:54:47.762Z,-76
2019-04-25T13:57:17.246Z,-77
2019-04-25T13:59:46.976Z,-77
2019-04-25T14:02:16.647Z,-77
2019-04-25T14:04:46.192Z,-76
2019-04-25T14:07:15.684Z,-77
2019-04-25T14:09:45.224Z,-77
2019-04-25T14:12:14.987Z,-77
2019-04-25T14:14:44.458Z,-77
2019-04-25T14:17:25.830Z,-77
2019-04-25T14:20:00.963Z,-77
2019-04-25T14:22:30.531Z,-77
2019-04-25T14:25:00.265Z,-77
2019-04-25T14:27:30.240Z,-77
2019-04-25T14:29:59.721Z,-76
2019-04-25T14:32:30.139Z,-76
2019-04-25T14:34:59.726Z,-77
2019-04-25T14:37:32.203Z,-77
2019-04-25T14:40:00.482Z,-76
2019-04-25T14:42:30.715Z,-77
2019-04-25T14:45:00.185Z,-77
2019-04-25T14:47:29.834Z,-77
2019-04-25T14:49:59.296Z,-77
2019-04-25T14:52:28.882Z,-77
2019-04-25T14:54:58.221Z,-76
2019-04-25T14:57:29.804Z,-77
2019-04-25T15:00:02.033Z,-77
2019-04-25T15:02:32.476Z,-76
2019-04-25T15:05:05.588Z,-77
2019-04-25T15:07:35.172Z,-75
2019-04-25T15:10:06.461Z,-74
2019-04-25T15:12:35.947Z,-76
2019-04-25T15:15:06.963Z,-77
2019-04-25T15:17:45.171Z,-75
2019-04-25T15:20:09.090Z,-76
2019-04-25T15:22:38.649Z,-76
2019-04-25T15:25:08.417Z,-77
2019-04-25T15:27:37.948Z,-77
2019-04-25T15:30:09.992Z,-77
2019-04-25T15:32:39.597Z,-76
2019-04-25T15:35:10.965Z,-76
2019-04-25T15:37:50.003Z,-75
2019-04-25T15:40:22.208Z,-75
2019-04-25T15:43:00.206Z,-76
2019-04-25T15:45:34.267Z,-75
2019-04-25T15:48:05.543Z,-76
2019-04-25T15:50:34.994Z,-76
2019-04-25T15:53:04.575Z,-75
2019-04-25T15:55:34.802Z,-76
2019-04-25T15:58:04.708Z,-76
2019-04-25T16:00:37.767Z,-77
2019-04-25T16:03:08.688Z,-75
2019-04-25T16:05:38.385Z,-76
2019-04-25T16:08:08.526Z,-75
2019-04-25T16:10:38.013Z,-76
2019-04-25T16:13:07.957Z,-77
2019-04-25T16:15:37.526Z,-76
2019-04-25T16:18:07.454Z,-77
2019-04-25T16:20:37.040Z,-76
2019-04-25T16:23:07.654Z,-75
2019-04-25T16:25:37.254Z,-76
2019-04-25T16:28:06.779Z,-75
2019-04-25T16:30:36.535Z,-76
2019-04-25T16:33:06.619Z,-75
2019-04-25T16:35:36.151Z,-75
2019-04-25T16:38:06.702Z,-75
2019-04-25T16:40:36.332Z,-75
2019-04-25T16:43:07.670Z,-76
2019-04-25T16:45:38.885Z,-86
2019-04-25T16:48:08.420Z,-85
2019-04-25T16:50:38.352Z,-83
2019-04-25T16:53:07.873Z,-84
2019-04-25T16:55:37.431Z,-83
2019-04-25T16:58:08.464Z,-85
2019-04-25T17:00:45.333Z,-83
2019-04-25T17:03:15.546Z,-87
2019-04-25T17:05:45.272Z,-87
2019-04-25T17:08:14.815Z,-83
2019-04-25T17:10:44.436Z,-84
2019-04-25T17:13:14.084Z,-81
2019-04-25T17:15:54.123Z,-81
2019-04-25T17:18:25.340Z,-81
2019-04-25T17:20:56.527Z,-83
2019-04-25T17:23:26.089Z,-82
2019-04-25T17:25:55.660Z,-83
2019-04-25T17:28:25.342Z,-82
2019-04-25T17:30:56.565Z,-82
2019-04-25T17:33:31.279Z,-81
2019-04-25T17:36:06.264Z,-82
2019-04-25T17:38:37.654Z,-85
2019-04-25T17:41:07.277Z,-85
2019-04-25T17:43:36.845Z,-85
2019-04-25T17:46:08.031Z,-87
2019-04-25T17:48:38.266Z,-84
2019-04-25T17:51:07.786Z,-83
2019-04-25T17:53:37.372Z,-84
2019-04-25T17:56:07.007Z,-85
2019-04-25T17:58:36.781Z,-83
2019-04-25T18:01:08.216Z,-82
2019-04-25T18:03:37.836Z,-83
2019-04-25T18:06:07.365Z,-85
2019-04-25T18:08:37.494Z,-86
2019-04-25T18:11:07.767Z,-84
2019-04-25T18:13:38.801Z,-84
2019-04-25T18:16:19.167Z,-84
2019-04-25T18:18:59.207Z,-84
2019-04-25T18:21:28.670Z,-85
2019-04-25T18:24:15.873Z,-83
2019-04-25T18:26:53.192Z,-86
2019-04-25T18:29:24.115Z,-83
2019-04-25T18:31:54.036Z,-86
2019-04-25T18:34:28.849Z,-87
2019-04-25T18:36:58.086Z,-84
2019-04-25T18:39:29.206Z,-86
2019-04-25T18:42:08.057Z,-84
2019-04-25T18:44:37.872Z,-84
2019-04-25T18:47:07.448Z,-85
2019-04-25T18:49:37.659Z,-85
2019-04-25T18:52:09.805Z,-84
2019-04-25T18:54:47.324Z,-83
2019-04-25T18:57:21.640Z,-84
2019-04-25T19:00:07.777Z,-83
2019-04-25T19:02:40.035Z,-85
2019-04-25T19:05:24.480Z,-85
2019-04-25T19:07:54.112Z,-84
2019-04-25T19:10:24.200Z,-84
2019-04-25T19:12:53.839Z,-85
2019-04-25T19:15:23.521Z,-85
2019-04-25T19:17:53.157Z,-87
2019-04-25T19:20:22.768Z,-87
2019-04-25T19:22:52.665Z,-87
2019-04-25T19:25:22.330Z,-87
2019-04-25T19:28:11.291Z,-88
2019-04-25T19:30:41.087Z,-72
2019-04-25T19:33:10.741Z,-72
2019-04-25T19:35:40.770Z,-71
2019-04-25T19:38:11.176Z,-72
2019-04-25T19:40:48.773Z,-72
2019-04-25T19:43:22.809Z,-72
2019-04-25T19:45:52.357Z,-72
2019-04-25T19:48:21.928Z,-72
2019-04-25T19:50:52.738Z,-72
2019-04-25T19:53:22.436Z,-72
2019-04-25T19:56:11.305Z,-72
2019-04-25T19:58:42.053Z,-72
2019-04-25T20:01:11.653Z,-72
2019-04-25T20:03:53.392Z,-72
2019-04-25T20:06:20.887Z,-72
2019-04-25T20:09:16.789Z,-72
2019-04-25T20:14:25.698Z,-72
2019-04-25T20:16:55.205Z,-72
2019-04-25T20:19:24.679Z,-72
2019-04-25T20:21:54.220Z,-72
2019-04-25T20:24:23.713Z,-72
2019-04-25T20:26:53.237Z,-72
2019-04-25T20:29:22.699Z,-72
2019-04-25T20:31:52.786Z,-72
2019-04-25T20:34:22.440Z,-72
2019-04-25T20:36:51.944Z,-72
2019-04-25T20:39:40.792Z,-71
2019-04-25T20:42:10.331Z,-73
2019-04-25T20:44:39.840Z,-74
2019-04-25T20:47:09.386Z,-75
2019-04-25T20:49:38.898Z,-75
2019-04-25T20:52:08.454Z,-75
2019-04-25T20:54:37.955Z,-75
2019-04-25T20:57:07.602Z,-74
2019-04-25T20:59:37.114Z,-75
2019-04-25T21:02:08.052Z,-73
2019-04-25T21:04:41.538Z,-74
2019-04-25T21:07:11.764Z,-74
2019-04-25T21:09:41.630Z,-75
2019-04-25T21:12:11.104Z,-75
2019-04-25T21:14:51.197Z,-75
2019-04-25T21:17:24.900Z,-75
2019-04-25T21:19:56.317Z,-75
2019-04-25T21:22:25.888Z,-75
2019-04-25T21:24:55.845Z,-75
2019-04-25T21:27:25.555Z,-74
2019-04-25T21:29:55.603Z,-75
2019-04-25T21:32:53.086Z,-74
2019-04-25T21:35:23.993Z,-75
2019-04-25T21:37:53.647Z,-73
2019-04-25T21:40:39.751Z,-74
2019-04-25T21:43:11.959Z,-75
2019-04-25T21:45:41.895Z,-75
2019-04-25T21:48:30.986Z,-75
2019-04-25T21:51:03.437Z,-75
2019-04-25T21:53:32.956Z,-74
2019-04-25T21:56:02.745Z,-74
2019-04-25T21:58:32.590Z,-75
2019-04-25T22:01:04.491Z,-75
2019-04-25T22:03:34.100Z,-75
2019-04-25T22:06:05.108Z,-75
2019-04-25T22:08:34.586Z,-75
2019-04-25T22:11:04.105Z,-75
2019-04-25T22:13:34.059Z,-75
2019-04-25T22:16:04.105Z,-75
2019-04-25T22:18:33.932Z,-75
2019-04-25T22:21:04.226Z,-75
2019-04-25T22:23:34.235Z,-75
2019-04-25T22:26:04.901Z,-75
2019-04-25T22:28:34.806Z,-75
2019-04-25T22:31:08.803Z,-75
2019-04-25T22:33:57.173Z,-75
2019-04-25T22:36:28.262Z,-75
2019-04-25T22:39:17.126Z,-75
2019-04-25T22:41:50.002Z,-75
2019-04-25T22:44:20.284Z,-74
2019-04-25T22:46:50.174Z,-73
2019-04-25T22:49:19.633Z,-73
2019-04-25T22:51:49.116Z,-73
2019-04-25T22:54:18.873Z,-73
2019-04-25T22:56:48.412Z,-73
2019-04-25T22:59:18.179Z,-73
2019-04-25T23:01:47.450Z,-73
2019-04-25T23:04:19.617Z,-73
2019-04-25T23:06:49.185Z,-73
2019-04-25T23:09:38.878Z,-72
2019-04-25T23:12:08.784Z,-73
2019-04-25T23:14:38.572Z,-72
2019-04-25T23:17:08.057Z,-73
2019-04-25T23:19:37.544Z,-73
2019-04-25T23:22:07.394Z,-72
2019-04-25T23:24:38.605Z,-72
2019-04-25T23:27:15.835Z,-71
2019-04-25T23:29:45.292Z,-71
2019-04-25T23:32:15.153Z,-70
2019-04-25T23:34:44.651Z,-71
2019-04-25T23:37:14.263Z,-71
2019-04-25T23:39:44.966Z,-72
2019-04-25T23:42:14.446Z,-72
2019-04-25T23:44:45.047Z,-72
2019-04-25T23:47:14.574Z,-72
2019-04-25T23:49:44.039Z,-72
2019-04-25T23:52:15.027Z,-72
2019-04-25T23:54:44.809Z,-72
2019-04-25T23:57:15.779Z,-72
2019-04-25T23:59:45.341Z,-72
